createdAt,value
2023-03-17T00:00:31.845Z,3.95
2023-03-17T00:02:59.792Z,3.88
2023-03-17T00:05:33.203Z,3.85
2023-03-17T00:08:04.502Z,3.80
2023-03-17T00:10:31.739Z,3.77
2023-03-17T00:12:58.696Z,3.78
2023-03-17T00:15:27.202Z,3.72
2023-03-17T00:17:55.825Z,3.63
2023-03-17T00:20:27.382Z,3.55
2023-03-17T00:22:57.573Z,3.51
2023-03-17T00:25:27.200Z,3.49
2023-03-17T00:27:54.910Z,3.50
2023-03-17T00:30:22.876Z,3.51
2023-03-17T00:32:52.195Z,3.53
2023-03-17T00:35:23.161Z,3.54
2023-03-17T00:37:52.333Z,3.57
2023-03-17T00:40:24.142Z,3.59
2023-03-17T00:42:52.251Z,3.64
2023-03-17T00:45:21.219Z,3.64
2023-03-17T00:47:49.050Z,3.65
2023-03-17T00:50:22.076Z,3.63
2023-03-17T00:52:52.126Z,3.59
2023-03-17T00:55:19.672Z,3.58
2023-03-17T00:57:49.589Z,3.60
2023-03-17T01:00:23.769Z,3.63
2023-03-17T01:02:51.254Z,3.63
2023-03-17T01:05:19.324Z,3.63
2023-03-17T01:07:52.654Z,3.65
2023-03-17T01:10:23.957Z,3.66
2023-03-17T01:12:52.190Z,3.66
2023-03-17T01:15:21.660Z,3.68
2023-03-17T01:17:50.635Z,3.72
2023-03-17T01:20:19.720Z,3.68
2023-03-17T01:22:46.457Z,3.65
2023-03-17T01:25:13.913Z,3.58
2023-03-17T01:27:45.354Z,3.46
2023-03-17T01:30:23.178Z,3.37
2023-03-17T01:32:50.320Z,3.32
2023-03-17T01:35:18.581Z,3.30
2023-03-17T01:37:46.438Z,3.26
2023-03-17T01:40:17.291Z,3.22
2023-03-17T01:42:48.029Z,3.23
2023-03-17T01:45:52.140Z,3.25
2023-03-17T01:48:20.446Z,3.25
2023-03-17T01:50:48.358Z,3.24
2023-03-17T01:53:16.380Z,3.25
2023-03-17T01:55:45.495Z,3.28
2023-03-17T01:58:13.036Z,3.31
2023-03-17T02:00:39.891Z,3.27
2023-03-17T02:03:06.542Z,3.26
2023-03-17T02:05:34.599Z,3.24
2023-03-17T02:08:03.090Z,3.24
2023-03-17T02:10:30.638Z,3.17
2023-03-17T02:13:01.206Z,3.08
2023-03-17T02:15:37.096Z,2.99
2023-03-17T02:18:03.871Z,2.88
2023-03-17T02:21:04.307Z,2.79
2023-03-17T02:23:32.329Z,2.67
2023-03-17T02:25:59.354Z,2.59
2023-03-17T02:28:30.750Z,2.50
2023-03-17T02:30:57.929Z,2.44
2023-03-17T02:33:24.623Z,2.41
2023-03-17T02:35:54.413Z,2.40
2023-03-17T02:38:21.837Z,2.40
2023-03-17T02:40:49.974Z,2.41
2023-03-17T02:43:16.835Z,2.41
2023-03-17T02:45:43.494Z,2.41
2023-03-17T02:48:11.946Z,2.42
2023-03-17T02:50:38.695Z,2.46
2023-03-17T02:53:05.380Z,2.50
2023-03-17T02:55:32.005Z,2.55
2023-03-17T02:58:01.986Z,2.61
2023-03-17T03:00:28.890Z,2.67
2023-03-17T03:02:55.882Z,2.74
2023-03-17T03:05:22.590Z,2.81
2023-03-17T03:07:49.210Z,2.87
2023-03-17T03:10:16.422Z,2.89
2023-03-17T03:12:43.070Z,2.90
2023-03-17T03:15:11.881Z,2.89
2023-03-17T03:17:38.578Z,2.82
2023-03-17T03:20:06.253Z,2.75
2023-03-17T03:22:32.898Z,2.67
2023-03-17T03:24:59.650Z,2.61
2023-03-17T03:27:26.617Z,2.52
2023-03-17T03:29:53.249Z,2.48
2023-03-17T03:32:21.231Z,2.46
2023-03-17T03:34:47.880Z,2.48
2023-03-17T03:37:14.644Z,2.53
2023-03-17T03:39:41.405Z,2.56
2023-03-17T03:42:08.685Z,2.63
2023-03-17T03:44:35.410Z,2.68
2023-03-17T03:47:02.763Z,2.70
2023-03-17T03:49:31.416Z,2.74
2023-03-17T03:51:58.050Z,2.75
2023-03-17T03:54:24.770Z,2.77
2023-03-17T03:56:51.498Z,2.76
2023-03-17T03:59:18.561Z,2.72
2023-03-17T04:01:45.635Z,2.72
2023-03-17T04:04:12.268Z,2.73
2023-03-17T04:06:40.383Z,2.73
2023-03-17T04:09:07.498Z,2.71
2023-03-17T04:11:34.081Z,2.68
2023-03-17T04:14:00.980Z,2.68
2023-03-17T04:16:28.242Z,2.64
2023-03-17T04:18:54.886Z,2.61
2023-03-17T04:21:21.856Z,2.58
2023-03-17T04:23:49.796Z,2.58
2023-03-17T04:26:18.689Z,2.56
2023-03-17T04:28:45.395Z,2.52
2023-03-17T04:31:12.457Z,2.48
2023-03-17T04:33:40.837Z,2.44
2023-03-17T04:36:08.417Z,2.38
2023-03-17T04:38:35.246Z,2.33
2023-03-17T04:41:03.257Z,2.30
2023-03-17T04:43:29.778Z,2.28
2023-03-17T04:45:56.934Z,2.29
2023-03-17T04:48:23.554Z,2.32
2023-03-17T04:50:50.080Z,2.32
2023-03-17T04:53:16.572Z,2.30
2023-03-17T04:55:43.227Z,2.29
2023-03-17T04:58:15.499Z,2.30
2023-03-17T05:00:47.721Z,2.28
2023-03-17T05:03:26.371Z,2.24
2023-03-17T05:05:53.209Z,2.21
2023-03-17T05:08:20.115Z,2.16
2023-03-17T05:10:46.594Z,2.13
2023-03-17T05:13:14.510Z,2.12
2023-03-17T05:15:41.143Z,2.11
2023-03-17T05:18:08.502Z,2.11
2023-03-17T05:20:34.970Z,2.09
2023-03-17T05:23:01.894Z,2.08
2023-03-17T05:25:28.380Z,2.04
2023-03-17T05:27:54.886Z,2.03
2023-03-17T05:30:23.017Z,1.98
2023-03-17T05:32:49.854Z,1.96
2023-03-17T05:35:17.389Z,1.94
2023-03-17T05:37:43.877Z,1.96
2023-03-17T05:40:11.046Z,1.94
2023-03-17T05:42:37.836Z,1.97
2023-03-17T05:45:05.725Z,2.00
2023-03-17T05:47:33.528Z,2.02
2023-03-17T05:50:00.657Z,1.98
2023-03-17T05:52:28.038Z,1.91
2023-03-17T05:54:54.722Z,1.89
2023-03-17T05:57:21.522Z,1.90
2023-03-17T05:59:48.538Z,1.93
2023-03-17T06:02:15.583Z,1.97
2023-03-17T06:04:43.623Z,1.98
2023-03-17T06:07:11.949Z,1.98
2023-03-17T06:09:38.465Z,1.96
2023-03-17T06:12:05.167Z,1.95
2023-03-17T06:14:32.859Z,1.97
2023-03-17T06:16:59.321Z,1.99
2023-03-17T06:19:26.057Z,2.03
2023-03-17T06:21:53.998Z,2.06
2023-03-17T06:24:20.578Z,2.10
2023-03-17T06:26:47.076Z,2.17
2023-03-17T06:29:13.556Z,2.24
2023-03-17T06:31:40.597Z,2.31
2023-03-17T06:34:07.221Z,2.39
2023-03-17T06:36:33.713Z,2.43
2023-03-17T06:39:02.061Z,2.48
2023-03-17T06:41:28.541Z,2.53
2023-03-17T06:43:55.026Z,2.57
2023-03-17T06:46:21.599Z,2.62
2023-03-17T06:48:48.103Z,2.64
2023-03-17T06:51:14.826Z,2.67
2023-03-17T06:53:41.484Z,2.73
2023-03-17T06:56:23.633Z,2.78
2023-03-17T06:58:55.570Z,2.86
2023-03-17T07:01:22.321Z,2.96
2023-03-17T07:03:48.866Z,3.05
2023-03-17T07:06:15.344Z,3.20
2023-03-17T07:08:41.957Z,3.35
2023-03-17T07:11:10.069Z,3.46
2023-03-17T07:13:38.712Z,3.55
2023-03-17T07:16:05.655Z,3.68
2023-03-17T07:18:33.708Z,3.86
2023-03-17T07:21:01.812Z,4.05
2023-03-17T07:23:29.422Z,4.30
2023-03-17T07:25:57.262Z,4.50
2023-03-17T07:28:25.165Z,4.73
2023-03-17T07:30:51.960Z,5.10
2023-03-17T07:33:22.228Z,5.14
2023-03-17T07:35:49.654Z,5.39
2023-03-17T07:38:17.918Z,5.68
2023-03-17T07:40:47.658Z,5.99
2023-03-17T07:43:14.599Z,6.32
2023-03-17T07:45:43.069Z,6.60
2023-03-17T07:48:10.610Z,6.82
2023-03-17T07:50:37.698Z,7.09
2023-03-17T07:53:04.949Z,7.28
2023-03-17T07:55:32.795Z,7.44
2023-03-17T07:58:00.104Z,7.59
2023-03-17T08:00:29.084Z,7.68
2023-03-17T08:03:09.503Z,7.87
2023-03-17T08:05:37.604Z,8.12
2023-03-17T08:08:06.862Z,8.31
2023-03-17T08:10:34.106Z,8.60
2023-03-17T08:13:01.179Z,8.88
2023-03-17T08:15:27.978Z,9.19
2023-03-17T08:17:54.642Z,9.51
2023-03-17T08:20:22.627Z,9.66
2023-03-17T08:22:49.295Z,9.73
2023-03-17T08:25:16.139Z,9.84
2023-03-17T08:27:42.898Z,10.07
2023-03-17T08:30:11.203Z,10.30
2023-03-17T08:32:38.003Z,10.60
2023-03-17T08:35:06.365Z,10.82
2023-03-17T08:37:34.514Z,11.05
2023-03-17T08:40:01.368Z,11.41
2023-03-17T08:42:28.161Z,11.79
2023-03-17T08:44:54.811Z,12.16
2023-03-17T08:47:21.890Z,12.46
2023-03-17T08:49:48.837Z,12.70
2023-03-17T08:52:16.214Z,12.92
2023-03-17T08:54:44.208Z,13.14
2023-03-17T08:57:10.864Z,13.34
2023-03-17T08:59:37.715Z,13.53
2023-03-17T09:02:04.972Z,13.74
2023-03-17T09:04:32.540Z,13.83
2023-03-17T09:07:03.873Z,14.05
2023-03-17T09:09:31.216Z,14.35
2023-03-17T09:11:59.258Z,14.60
2023-03-17T09:14:25.984Z,14.73
2023-03-17T09:16:52.925Z,14.84
2023-03-17T09:19:19.595Z,14.93
2023-03-17T09:21:46.929Z,15.03
2023-03-17T09:24:13.679Z,15.17
2023-03-17T09:26:41.527Z,15.35
2023-03-17T09:29:09.954Z,15.59
2023-03-17T09:31:37.373Z,15.82
2023-03-17T09:34:05.125Z,16.04
2023-03-17T09:36:33.159Z,16.27
2023-03-17T09:39:00.925Z,16.46
2023-03-17T09:41:53.925Z,16.69
2023-03-17T09:44:34.365Z,16.80
2023-03-17T09:47:12.280Z,16.89
2023-03-17T09:49:45.444Z,17.07
2023-03-17T09:52:14.785Z,17.26
2023-03-17T09:54:42.611Z,17.33
2023-03-17T09:57:14.409Z,17.38
2023-03-17T09:59:46.880Z,17.35
2023-03-17T10:02:21.332Z,17.42
2023-03-17T10:04:48.781Z,17.49
2023-03-17T10:07:20.348Z,17.68
2023-03-17T10:09:58.142Z,17.76
2023-03-17T10:12:31.660Z,17.88
2023-03-17T10:15:02.719Z,18.08
2023-03-17T10:17:32.624Z,18.25
2023-03-17T10:20:04.638Z,18.40
2023-03-17T10:22:38.020Z,18.45
2023-03-17T10:25:12.786Z,18.46
2023-03-17T10:27:40.989Z,18.51
2023-03-17T10:30:16.100Z,18.50
2023-03-17T10:32:44.185Z,18.58
2023-03-17T10:35:11.823Z,18.65
2023-03-17T10:37:39.311Z,18.74
2023-03-17T10:40:10.422Z,18.84
2023-03-17T10:42:47.711Z,18.85
2023-03-17T10:45:17.829Z,18.82
2023-03-17T10:47:48.261Z,18.75
2023-03-17T10:50:21.441Z,18.65
2023-03-17T10:52:53.045Z,18.81
2023-03-17T10:55:22.425Z,18.90
2023-03-17T10:57:53.588Z,19.04
2023-03-17T11:00:23.177Z,19.19
2023-03-17T11:02:56.264Z,19.22
2023-03-17T11:05:24.800Z,19.12
2023-03-17T11:07:58.650Z,19.01
2023-03-17T11:10:27.385Z,19.15
2023-03-17T11:12:59.035Z,19.40
2023-03-17T11:15:32.650Z,19.64
2023-03-17T11:18:01.472Z,19.93
2023-03-17T11:20:40.021Z,20.20
2023-03-17T11:23:18.865Z,20.38
2023-03-17T11:25:53.496Z,20.41
2023-03-17T11:28:21.746Z,20.41
2023-03-17T11:31:00.151Z,20.52
2023-03-17T11:33:35.423Z,20.77
2023-03-17T11:36:04.044Z,20.90
2023-03-17T11:38:33.433Z,20.98
2023-03-17T11:41:14.035Z,20.80
2023-03-17T11:43:53.060Z,20.47
2023-03-17T11:46:28.243Z,20.38
2023-03-17T11:49:01.118Z,20.36
2023-03-17T11:51:36.064Z,20.28
2023-03-17T11:54:09.709Z,20.26
2023-03-17T11:56:45.442Z,20.28
2023-03-17T11:59:19.672Z,20.27
2023-03-17T12:01:54.794Z,20.05
2023-03-17T12:04:30.564Z,19.89
2023-03-17T12:07:06.453Z,19.89
2023-03-17T12:09:38.037Z,19.87
2023-03-17T12:12:07.990Z,19.91
2023-03-17T12:14:40.328Z,19.93
2023-03-17T12:17:14.659Z,20.02
2023-03-17T12:19:50.578Z,19.98
2023-03-17T12:22:26.190Z,19.92
2023-03-17T12:25:02.855Z,20.02
2023-03-17T12:27:33.016Z,20.20
2023-03-17T12:30:05.259Z,20.42
2023-03-17T12:32:39.699Z,20.56
2023-03-17T12:35:25.371Z,20.38
2023-03-17T12:37:52.812Z,20.18
2023-03-17T12:40:26.701Z,20.29
2023-03-17T12:43:06.263Z,20.50
2023-03-17T12:46:08.692Z,20.69
2023-03-17T12:48:54.284Z,20.79
2023-03-17T12:51:40.112Z,20.64
2023-03-17T12:54:13.289Z,20.49
2023-03-17T12:56:45.333Z,20.50
2023-03-17T12:59:17.370Z,20.45
2023-03-17T13:01:54.703Z,20.35
2023-03-17T13:04:27.168Z,20.25
2023-03-17T13:07:02.491Z,20.16
2023-03-17T13:09:43.100Z,20.10
2023-03-17T13:12:35.749Z,20.16
2023-03-17T13:15:02.786Z,20.24
2023-03-17T13:17:33.550Z,20.27
2023-03-17T13:20:14.324Z,20.12
2023-03-17T13:23:00.425Z,19.97
2023-03-17T13:25:33.438Z,19.79
2023-03-17T13:28:22.632Z,19.58
2023-03-17T13:30:56.966Z,19.41
2023-03-17T13:33:30.655Z,19.32
2023-03-17T13:42:54.144Z,18.98
2023-03-17T13:45:41.621Z,18.93
2023-03-17T13:48:37.277Z,18.99
2023-03-17T13:51:17.600Z,19.05
2023-03-17T13:53:51.270Z,19.08
2023-03-17T13:56:23.629Z,19.03
2023-03-17T13:58:56.157Z,18.99
2023-03-17T14:01:25.134Z,19.00
2023-03-17T14:03:54.446Z,18.94
2023-03-17T14:06:34.537Z,18.91
2023-03-17T14:09:10.040Z,18.93
2023-03-17T14:11:39.024Z,18.89
2023-03-17T14:14:32.079Z,18.88
2023-03-17T14:17:05.366Z,18.89
2023-03-17T14:19:32.704Z,18.90
2023-03-17T14:22:17.988Z,18.90
2023-03-17T14:24:51.442Z,18.92
2023-03-17T14:27:18.209Z,18.92
2023-03-17T14:29:45.796Z,18.92
2023-03-17T14:32:15.978Z,18.92
2023-03-17T14:34:44.292Z,18.87
2023-03-17T14:37:12.829Z,18.86
2023-03-17T14:39:48.907Z,18.95
2023-03-17T14:42:17.983Z,19.00
2023-03-17T14:44:45.066Z,19.11
2023-03-17T14:47:20.036Z,19.12
2023-03-17T14:49:47.930Z,19.07
2023-03-17T14:52:20.564Z,19.03
2023-03-17T14:54:53.827Z,19.06
2023-03-17T14:57:25.617Z,19.08
2023-03-17T14:59:57.721Z,19.02
2023-03-17T15:02:31.140Z,18.88
2023-03-17T15:05:02.996Z,18.78
2023-03-17T15:07:35.778Z,18.62
2023-03-17T15:10:05.968Z,18.56
2023-03-17T15:12:33.640Z,18.55
2023-03-17T15:15:04.010Z,18.55
2023-03-17T15:17:33.580Z,18.47
2023-03-17T15:20:04.936Z,18.39
2023-03-17T15:22:41.668Z,18.37
2023-03-17T15:25:21.396Z,18.38
2023-03-17T15:27:48.532Z,18.38
2023-03-17T15:30:16.986Z,18.36
2023-03-17T15:32:45.234Z,18.27
2023-03-17T15:35:13.996Z,18.19
2023-03-17T15:37:41.725Z,18.08
2023-03-17T15:40:13.576Z,18.05
2023-03-17T15:42:42.983Z,18.06
2023-03-17T15:45:14.962Z,18.10
2023-03-17T15:47:45.641Z,18.17
2023-03-17T15:50:18.518Z,18.18
2023-03-17T15:52:46.180Z,18.16
2023-03-17T15:55:21.161Z,18.17
2023-03-17T15:57:55.145Z,18.14
2023-03-17T16:00:24.714Z,18.15
2023-03-17T16:02:55.785Z,18.16
2023-03-17T16:05:25.346Z,18.16
2023-03-17T16:07:54.671Z,18.13
2023-03-17T16:10:24.420Z,18.11
2023-03-17T16:12:55.296Z,18.08
2023-03-17T16:15:27.795Z,18.04
2023-03-17T16:17:59.313Z,18.01
2023-03-17T16:20:29.962Z,17.95
2023-03-17T16:23:02.213Z,17.91
2023-03-17T16:25:31.810Z,17.86
2023-03-17T16:28:03.038Z,17.83
2023-03-17T16:30:34.070Z,17.76
2023-03-17T16:33:03.798Z,17.67
2023-03-17T16:35:31.561Z,17.60
2023-03-17T16:37:58.571Z,17.53
2023-03-17T16:40:29.095Z,17.47
2023-03-17T16:42:57.136Z,17.41
2023-03-17T16:45:30.166Z,17.33
2023-03-17T16:47:57.483Z,17.26
2023-03-17T16:50:30.145Z,17.16
2023-03-17T16:53:04.211Z,17.01
2023-03-17T16:55:31.723Z,16.85
2023-03-17T16:58:01.230Z,16.69
2023-03-17T17:00:30.688Z,16.54
2023-03-17T17:02:58.666Z,16.42
2023-03-17T17:05:27.393Z,16.31
2023-03-17T17:07:57.493Z,16.23
2023-03-17T17:10:26.643Z,16.12
2023-03-17T17:12:54.491Z,15.98
2023-03-17T17:15:28.109Z,15.83
2023-03-17T17:18:00.102Z,15.65
2023-03-17T17:20:30.939Z,15.52
2023-03-17T17:22:58.857Z,15.39
2023-03-17T17:25:28.979Z,15.26
2023-03-17T17:27:57.234Z,15.09
2023-03-17T17:33:12.394Z,14.86
2023-03-17T17:35:41.745Z,14.76
2023-03-17T17:38:17.710Z,14.64
2023-03-17T17:40:44.472Z,14.45
2023-03-17T17:43:11.254Z,14.31
2023-03-17T17:45:39.046Z,14.19
2023-03-17T17:48:05.896Z,14.08
2023-03-17T17:50:34.209Z,13.94
2023-03-17T17:53:08.465Z,13.81
2023-03-17T17:55:35.349Z,13.70
2023-03-17T17:58:02.131Z,13.59
2023-03-17T18:00:30.198Z,13.49
2023-03-17T18:02:57.008Z,13.42
2023-03-17T18:05:24.014Z,13.36
2023-03-17T18:07:52.046Z,13.32
2023-03-17T18:10:22.604Z,13.32
2023-03-17T18:12:49.667Z,13.31
2023-03-17T18:15:16.876Z,13.31
2023-03-17T18:17:43.877Z,13.26
2023-03-17T18:20:12.380Z,13.21
2023-03-17T18:22:39.841Z,13.12
2023-03-17T18:25:10.090Z,13.07
2023-03-17T18:27:37.444Z,13.04
2023-03-17T18:30:07.287Z,13.02
2023-03-17T18:32:34.849Z,13.02
2023-03-17T18:35:05.244Z,13.01
2023-03-17T18:37:32.524Z,12.95
2023-03-17T18:40:13.439Z,12.93
2023-03-17T18:42:43.445Z,12.89
2023-03-17T18:45:11.609Z,12.87
2023-03-17T18:47:39.027Z,12.81
2023-03-17T18:50:08.318Z,12.74
2023-03-17T18:52:37.196Z,12.62
2023-03-17T18:55:05.226Z,12.43
2023-03-17T18:57:35.061Z,12.24
2023-03-17T19:00:05.047Z,12.03
2023-03-17T19:02:31.698Z,11.94
2023-03-17T19:04:58.554Z,11.91
2023-03-17T19:07:25.555Z,11.83
2023-03-17T19:09:52.894Z,11.74
2023-03-17T19:12:19.577Z,11.70
2023-03-17T19:14:47.215Z,11.69
2023-03-17T19:17:18.590Z,11.66
2023-03-17T19:19:46.494Z,11.58
2023-03-17T19:22:14.063Z,11.47
2023-03-17T19:24:41.161Z,11.39
2023-03-17T19:27:08.017Z,11.35
2023-03-17T19:29:34.707Z,11.35
2023-03-17T19:32:02.319Z,11.37
2023-03-17T19:34:30.532Z,11.35
2023-03-17T19:36:57.217Z,11.24
2023-03-17T19:39:24.110Z,11.15
2023-03-17T19:41:54.897Z,11.10
2023-03-17T19:44:21.722Z,11.08
2023-03-17T19:46:48.446Z,10.96
2023-03-17T19:49:15.782Z,10.76
2023-03-17T19:51:44.091Z,10.59
2023-03-17T19:54:11.687Z,10.39
2023-03-17T19:56:39.211Z,10.19
2023-03-17T19:59:05.947Z,10.07
2023-03-17T20:01:32.735Z,10.07
2023-03-17T20:03:59.610Z,10.12
2023-03-17T20:06:27.177Z,10.09
2023-03-17T20:08:55.181Z,10.01
2023-03-17T20:11:21.833Z,9.93
2023-03-17T20:13:48.491Z,9.86
2023-03-17T20:16:16.476Z,9.77
2023-03-17T20:18:43.167Z,9.65
2023-03-17T20:21:13.046Z,9.51
2023-03-17T20:23:39.709Z,9.33
2023-03-17T20:26:08.356Z,9.20
2023-03-17T20:28:35.620Z,9.09
2023-03-17T20:31:05.650Z,9.03
2023-03-17T20:33:33.411Z,8.99
2023-03-17T20:36:01.810Z,8.96
2023-03-17T20:38:28.782Z,8.84
2023-03-17T20:41:04.442Z,8.68
2023-03-17T20:43:34.159Z,8.53
2023-03-17T20:46:01.357Z,8.41
2023-03-17T20:48:28.468Z,8.32
2023-03-17T20:50:55.177Z,8.21
2023-03-17T20:53:24.589Z,8.12
2023-03-17T20:55:51.280Z,8.12
2023-03-17T20:58:18.406Z,8.14
2023-03-17T21:00:49.190Z,8.13
2023-03-17T21:03:17.770Z,8.06
2023-03-17T21:05:45.706Z,7.97
2023-03-17T21:08:12.435Z,7.90
2023-03-17T21:10:39.268Z,7.93
2023-03-17T21:13:06.876Z,7.93
2023-03-17T21:15:33.603Z,7.97
2023-03-17T21:18:01.895Z,8.00
2023-03-17T21:20:28.557Z,8.03
2023-03-17T21:22:56.547Z,8.06
2023-03-17T21:25:23.434Z,7.98
2023-03-17T21:27:50.834Z,7.87
2023-03-17T21:30:17.863Z,7.81
2023-03-17T21:32:44.573Z,7.73
2023-03-17T21:35:12.790Z,7.64
2023-03-17T21:37:39.483Z,7.56
2023-03-17T21:40:07.361Z,7.46
2023-03-17T21:42:35.117Z,7.33
2023-03-17T21:45:01.928Z,7.25
2023-03-17T21:47:30.200Z,7.23
2023-03-17T21:49:57.934Z,7.21
2023-03-17T21:52:26.134Z,7.29
2023-03-17T21:54:53.502Z,7.39
2023-03-17T21:57:20.333Z,7.43
2023-03-17T21:59:48.019Z,7.49
2023-03-17T22:02:17.544Z,7.53
2023-03-17T22:04:44.042Z,7.51
2023-03-17T22:07:12.138Z,7.46
2023-03-17T22:09:40.241Z,7.37
2023-03-17T22:12:07.827Z,7.28
2023-03-17T22:14:35.626Z,7.26
2023-03-17T22:17:05.311Z,7.26
2023-03-17T22:19:32.176Z,7.18
2023-03-17T22:21:59.126Z,7.11
2023-03-17T22:24:25.907Z,7.13
2023-03-17T22:26:55.552Z,7.11
2023-03-17T22:29:22.043Z,7.14
2023-03-17T22:31:49.000Z,7.16
2023-03-17T22:34:17.356Z,7.15
2023-03-17T22:36:44.044Z,7.14
2023-03-17T22:39:10.876Z,7.17
2023-03-17T22:41:38.472Z,7.21
2023-03-17T22:44:07.125Z,7.18
2023-03-17T22:46:34.213Z,7.13
2023-03-17T22:49:01.212Z,7.02
2023-03-17T22:51:28.414Z,6.92
2023-03-17T22:53:55.622Z,6.86
2023-03-17T22:56:22.272Z,6.88
2023-03-17T22:58:48.928Z,6.88
2023-03-17T23:01:18.451Z,6.84
2023-03-17T23:03:46.262Z,6.78
2023-03-17T23:06:14.464Z,6.78
2023-03-17T23:08:42.884Z,6.77
2023-03-17T23:11:13.633Z,6.74
2023-03-17T23:13:41.590Z,6.69
2023-03-17T23:16:09.130Z,6.69
2023-03-17T23:18:37.296Z,6.65
2023-03-17T23:21:05.234Z,6.62
2023-03-17T23:23:32.074Z,6.59
2023-03-17T23:25:59.549Z,6.63
2023-03-17T23:28:26.518Z,6.69
2023-03-17T23:30:53.989Z,6.74
2023-03-17T23:33:21.566Z,6.75
2023-03-17T23:35:50.461Z,6.73
2023-03-17T23:38:19.384Z,6.69
2023-03-17T23:40:46.676Z,6.64
2023-03-17T23:43:14.362Z,6.56
2023-03-17T23:45:41.707Z,6.46
2023-03-17T23:48:09.113Z,6.43
2023-03-17T23:50:36.448Z,6.37
2023-03-17T23:53:04.414Z,6.35
2023-03-17T23:55:31.470Z,6.34
2023-03-17T23:57:58.119Z,6.35
